sensor_id;sensor_type;location;lat;lon;timestamp;P1;durP1;ratioP1;P2;durP2;ratioP2
13764;SDS011;6953;48.810;9.204;2022-08-11T00:01:35;0.10;;;0.10;;
13764;SDS011;6953;48.810;9.204;2022-08-11T00:04:02;0.20;;;0.20;;
13764;SDS011;6953;48.810;9.204;2022-08-11T00:06:36;0.20;;;0.20;;
13764;SDS011;6953;48.810;9.204;2022-08-11T00:09:03;0.10;;;0.10;;
13764;SDS011;6953;48.810;9.204;2022-08-11T00:11:51;0.20;;;0.20;;
13764;SDS011;6953;48.810;9.204;2022-08-11T00:14:24;0.17;;;0.17;;
13764;SDS011;6953;48.810;9.204;2022-08-11T00:19:23;0.30;;;0.30;;
13764;SDS011;6953;48.810;9.204;2022-08-11T00:21:53;0.50;;;0.50;;
13764;SDS011;6953;48.810;9.204;2022-08-11T00:24:20;0.57;;;0.57;;
13764;SDS011;6953;48.810;9.204;2022-08-11T00:26:48;0.55;;;0.55;;
13764;SDS011;6953;48.810;9.204;2022-08-11T00:29:17;0.60;;;0.60;;
13764;SDS011;6953;48.810;9.204;2022-08-11T00:31:48;0.47;;;0.47;;
13764;SDS011;6953;48.810;9.204;2022-08-11T00:34:16;0.30;;;0.30;;
13764;SDS011;6953;48.810;9.204;2022-08-11T00:39:20;0.55;;;0.55;;
13764;SDS011;6953;48.810;9.204;2022-08-11T00:41:54;0.50;;;0.50;;
13764;SDS011;6953;48.810;9.204;2022-08-11T00:50:25;0.50;;;0.50;;
13764;SDS011;6953;48.810;9.204;2022-08-11T01:07:29;0.60;;;0.60;;
13764;SDS011;6953;48.810;9.204;2022-08-11T01:55:51;0.60;;;0.60;;
13764;SDS011;6953;48.810;9.204;2022-08-11T02:03:53;0.40;;;0.40;;
13764;SDS011;6953;48.810;9.204;2022-08-11T02:06:29;0.60;;;0.60;;
13764;SDS011;6953;48.810;9.204;2022-08-11T02:15:13;0.50;;;0.50;;
13764;SDS011;6953;48.810;9.204;2022-08-11T02:20:34;0.60;;;0.60;;
13764;SDS011;6953;48.810;9.204;2022-08-11T02:23:39;0.60;;;0.60;;
13764;SDS011;6953;48.810;9.204;2022-08-11T02:26:15;0.50;;;0.50;;
13764;SDS011;6953;48.810;9.204;2022-08-11T02:34:39;0.30;;;0.30;;
13764;SDS011;6953;48.810;9.204;2022-08-11T02:47:47;0.40;;;0.40;;
13764;SDS011;6953;48.810;9.204;2022-08-11T02:50:46;0.40;;;0.40;;
13764;SDS011;6953;48.810;9.204;2022-08-11T02:56:10;0.60;;;0.60;;
13764;SDS011;6953;48.810;9.204;2022-08-11T03:02:01;0.60;;;0.60;;
13764;SDS011;6953;48.810;9.204;2022-08-11T03:04:54;0.60;;;0.60;;
13764;SDS011;6953;48.810;9.204;2022-08-11T03:10:22;0.60;;;0.60;;
13764;SDS011;6953;48.810;9.204;2022-08-11T03:21:56;0.57;;;0.57;;
13764;SDS011;6953;48.810;9.204;2022-08-11T03:24:42;0.60;;;0.60;;
13764;SDS011;6953;48.810;9.204;2022-08-11T03:30:13;0.50;;;0.50;;
13764;SDS011;6953;48.810;9.204;2022-08-11T03:32:48;0.60;;;0.60;;
13764;SDS011;6953;48.810;9.204;2022-08-11T03:36:02;0.50;;;0.50;;
13764;SDS011;6953;48.810;9.204;2022-08-11T03:38:32;0.50;;;0.50;;
13764;SDS011;6953;48.810;9.204;2022-08-11T03:49:59;0.50;;;0.50;;
13764;SDS011;6953;48.810;9.204;2022-08-11T03:55:13;0.50;;;0.50;;
13764;SDS011;6953;48.810;9.204;2022-08-11T04:21:35;0.70;;;0.70;;
13764;SDS011;6953;48.810;9.204;2022-08-11T04:24:47;0.52;;;0.52;;
13764;SDS011;6953;48.810;9.204;2022-08-11T04:35:30;0.40;;;0.40;;
13764;SDS011;6953;48.810;9.204;2022-08-11T04:46:56;0.40;;;0.40;;
13764;SDS011;6953;48.810;9.204;2022-08-11T04:49:39;0.50;;;0.50;;
13764;SDS011;6953;48.810;9.204;2022-08-11T04:59:22;0.40;;;0.40;;
13764;SDS011;6953;48.810;9.204;2022-08-11T05:05:29;0.30;;;0.30;;
13764;SDS011;6953;48.810;9.204;2022-08-11T05:16:53;0.25;;;0.25;;
13764;SDS011;6953;48.810;9.204;2022-08-11T05:19:46;0.20;;;0.20;;
13764;SDS011;6953;48.810;9.204;2022-08-11T05:22:31;0.20;;;0.20;;
13764;SDS011;6953;48.810;9.204;2022-08-11T05:25:21;0.20;;;0.20;;
13764;SDS011;6953;48.810;9.204;2022-08-11T05:28:15;0.17;;;0.17;;
13764;SDS011;6953;48.810;9.204;2022-08-11T05:31:17;0.10;;;0.10;;
13764;SDS011;6953;48.810;9.204;2022-08-11T05:40:05;0.10;;;0.10;;
13764;SDS011;6953;48.810;9.204;2022-08-11T05:42:54;0.00;;;0.00;;
13764;SDS011;6953;48.810;9.204;2022-08-11T05:45:40;0.10;;;0.10;;
13764;SDS011;6953;48.810;9.204;2022-08-11T05:48:31;0.30;;;0.30;;
13764;SDS011;6953;48.810;9.204;2022-08-11T05:51:16;0.20;;;0.20;;
13764;SDS011;6953;48.810;9.204;2022-08-11T05:54:02;0.20;;;0.20;;
13764;SDS011;6953;48.810;9.204;2022-08-11T05:56:49;0.20;;;0.20;;
13764;SDS011;6953;48.810;9.204;2022-08-11T05:59:23;0.20;;;0.20;;
13764;SDS011;6953;48.810;9.204;2022-08-11T06:01:49;0.20;;;0.20;;
13764;SDS011;6953;48.810;9.204;2022-08-11T06:04:17;0.20;;;0.20;;
13764;SDS011;6953;48.810;9.204;2022-08-11T06:06:55;0.10;;;0.10;;
13764;SDS011;6953;48.810;9.204;2022-08-11T06:09:30;0.17;;;0.17;;
13764;SDS011;6953;48.810;9.204;2022-08-11T06:12:03;0.17;;;0.17;;
13764;SDS011;6953;48.810;9.204;2022-08-11T06:14:33;0.00;;;0.00;;
13764;SDS011;6953;48.810;9.204;2022-08-11T06:16:59;0.00;;;0.00;;
13764;SDS011;6953;48.810;9.204;2022-08-11T06:19:37;0.10;;;0.10;;
13764;SDS011;6953;48.810;9.204;2022-08-11T06:22:05;0.10;;;0.10;;
13764;SDS011;6953;48.810;9.204;2022-08-11T06:24:35;0.10;;;0.10;;
13764;SDS011;6953;48.810;9.204;2022-08-11T06:27:03;0.10;;;0.10;;
13764;SDS011;6953;48.810;9.204;2022-08-11T06:29:30;0.10;;;0.10;;
13764;SDS011;6953;48.810;9.204;2022-08-11T06:32:00;0.10;;;0.10;;
13764;SDS011;6953;48.810;9.204;2022-08-11T06:43:50;0.10;;;0.10;;
13764;SDS011;6953;48.810;9.204;2022-08-11T06:46:25;0.10;;;0.10;;
13764;SDS011;6953;48.810;9.204;2022-08-11T06:48:55;0.10;;;0.10;;
13764;SDS011;6953;48.810;9.204;2022-08-11T06:51:21;0.00;;;0.00;;
13764;SDS011;6953;48.810;9.204;2022-08-11T06:53:51;0.10;;;0.10;;
13764;SDS011;6953;48.810;9.204;2022-08-11T06:56:22;0.10;;;0.10;;
13764;SDS011;6953;48.810;9.204;2022-08-11T06:59:14;0.10;;;0.10;;
13764;SDS011;6953;48.810;9.204;2022-08-11T07:02:03;0.10;;;0.10;;
13764;SDS011;6953;48.810;9.204;2022-08-11T07:04:31;0.10;;;0.10;;
13764;SDS011;6953;48.810;9.204;2022-08-11T07:12:56;0.15;;;0.15;;
13764;SDS011;6953;48.810;9.204;2022-08-11T07:15:41;0.10;;;0.10;;
13764;SDS011;6953;48.810;9.204;2022-08-11T07:18:10;0.10;;;0.10;;
13764;SDS011;6953;48.810;9.204;2022-08-11T07:21:18;0.10;;;0.10;;
13764;SDS011;6953;48.810;9.204;2022-08-11T07:24:09;0.10;;;0.10;;
13764;SDS011;6953;48.810;9.204;2022-08-11T07:26:57;0.10;;;0.10;;
13764;SDS011;6953;48.810;9.204;2022-08-11T07:29:45;0.10;;;0.10;;
13764;SDS011;6953;48.810;9.204;2022-08-11T07:32:23;0.10;;;0.10;;
13764;SDS011;6953;48.810;9.204;2022-08-11T07:34:54;0.10;;;0.10;;
13764;SDS011;6953;48.810;9.204;2022-08-11T07:37:32;0.10;;;0.10;;
13764;SDS011;6953;48.810;9.204;2022-08-11T07:39:59;0.10;;;0.10;;
13764;SDS011;6953;48.810;9.204;2022-08-11T07:42:27;0.10;;;0.10;;
13764;SDS011;6953;48.810;9.204;2022-08-11T07:45:01;0.10;;;0.10;;
13764;SDS011;6953;48.810;9.204;2022-08-11T07:47:48;0.10;;;0.10;;
13764;SDS011;6953;48.810;9.204;2022-08-11T07:50:34;0.10;;;0.10;;
13764;SDS011;6953;48.810;9.204;2022-08-11T07:53:22;0.10;;;0.10;;
13764;SDS011;6953;48.810;9.204;2022-08-11T07:55:48;0.10;;;0.10;;
13764;SDS011;6953;48.810;9.204;2022-08-11T07:58:14;0.10;;;0.10;;
13764;SDS011;6953;48.810;9.204;2022-08-11T08:00:59;0.10;;;0.10;;
13764;SDS011;6953;48.810;9.204;2022-08-11T08:03:44;0.10;;;0.10;;
13764;SDS011;6953;48.810;9.204;2022-08-11T08:06:28;0.00;;;0.00;;
13764;SDS011;6953;48.810;9.204;2022-08-11T08:09:19;0.10;;;0.10;;
13764;SDS011;6953;48.810;9.204;2022-08-11T08:12:04;0.10;;;0.10;;
13764;SDS011;6953;48.810;9.204;2022-08-11T08:14:50;0.10;;;0.10;;
13764;SDS011;6953;48.810;9.204;2022-08-11T08:17:36;0.10;;;0.10;;
13764;SDS011;6953;48.810;9.204;2022-08-11T08:20:20;0.10;;;0.10;;
13764;SDS011;6953;48.810;9.204;2022-08-11T08:22:52;0.10;;;0.10;;
13764;SDS011;6953;48.810;9.204;2022-08-11T08:25:28;0.10;;;0.10;;
13764;SDS011;6953;48.810;9.204;2022-08-11T08:27:57;0.10;;;0.10;;
13764;SDS011;6953;48.810;9.204;2022-08-11T08:30:27;0.00;;;0.00;;
13764;SDS011;6953;48.810;9.204;2022-08-11T08:33:16;0.00;;;0.00;;
13764;SDS011;6953;48.810;9.204;2022-08-11T08:35:45;0.00;;;0.00;;
13764;SDS011;6953;48.810;9.204;2022-08-11T08:38:12;0.00;;;0.00;;
13764;SDS011;6953;48.810;9.204;2022-08-11T08:40:39;0.00;;;0.00;;
13764;SDS011;6953;48.810;9.204;2022-08-11T08:43:07;0.00;;;0.00;;
13764;SDS011;6953;48.810;9.204;2022-08-11T08:45:36;0.10;;;0.10;;
13764;SDS011;6953;48.810;9.204;2022-08-11T08:48:05;0.10;;;0.10;;
13764;SDS011;6953;48.810;9.204;2022-08-11T08:50:36;0.00;;;0.00;;
13764;SDS011;6953;48.810;9.204;2022-08-11T08:53:27;0.10;;;0.10;;
13764;SDS011;6953;48.810;9.204;2022-08-11T08:55:57;0.00;;;0.00;;
13764;SDS011;6953;48.810;9.204;2022-08-11T08:58:25;0.10;;;0.10;;
13764;SDS011;6953;48.810;9.204;2022-08-11T09:00:52;0.10;;;0.10;;
13764;SDS011;6953;48.810;9.204;2022-08-11T09:03:19;0.10;;;0.10;;
13764;SDS011;6953;48.810;9.204;2022-08-11T09:05:45;0.10;;;0.10;;
13764;SDS011;6953;48.810;9.204;2022-08-11T09:08:13;0.10;;;0.10;;
13764;SDS011;6953;48.810;9.204;2022-08-11T09:10:42;0.10;;;0.10;;
13764;SDS011;6953;48.810;9.204;2022-08-11T09:13:12;0.10;;;0.10;;
13764;SDS011;6953;48.810;9.204;2022-08-11T09:15:39;0.10;;;0.10;;
13764;SDS011;6953;48.810;9.204;2022-08-11T09:18:05;0.10;;;0.10;;
13764;SDS011;6953;48.810;9.204;2022-08-11T09:20:34;0.10;;;0.10;;
13764;SDS011;6953;48.810;9.204;2022-08-11T09:23:02;0.10;;;0.10;;
13764;SDS011;6953;48.810;9.204;2022-08-11T09:25:52;0.00;;;0.00;;
13764;SDS011;6953;48.810;9.204;2022-08-11T09:28:43;0.10;;;0.10;;
13764;SDS011;6953;48.810;9.204;2022-08-11T09:31:10;0.10;;;0.10;;
13764;SDS011;6953;48.810;9.204;2022-08-11T09:33:37;0.10;;;0.10;;
13764;SDS011;6953;48.810;9.204;2022-08-11T09:36:04;0.10;;;0.10;;
13764;SDS011;6953;48.810;9.204;2022-08-11T09:38:50;0.00;;;0.00;;
13764;SDS011;6953;48.810;9.204;2022-08-11T09:41:35;0.10;;;0.10;;
13764;SDS011;6953;48.810;9.204;2022-08-11T09:44:01;0.10;;;0.10;;
13764;SDS011;6953;48.810;9.204;2022-08-11T09:46:46;0.08;;;0.08;;
13764;SDS011;6953;48.810;9.204;2022-08-11T09:49:13;0.10;;;0.10;;
13764;SDS011;6953;48.810;9.204;2022-08-11T09:51:39;0.10;;;0.10;;
13764;SDS011;6953;48.810;9.204;2022-08-11T09:54:05;0.10;;;0.10;;
13764;SDS011;6953;48.810;9.204;2022-08-11T09:56:32;0.10;;;0.10;;
13764;SDS011;6953;48.810;9.204;2022-08-11T09:59:19;0.10;;;0.10;;
13764;SDS011;6953;48.810;9.204;2022-08-11T10:01:47;0.10;;;0.10;;
13764;SDS011;6953;48.810;9.204;2022-08-11T10:04:16;0.10;;;0.10;;
13764;SDS011;6953;48.810;9.204;2022-08-11T10:06:49;0.10;;;0.10;;
13764;SDS011;6953;48.810;9.204;2022-08-11T10:09:27;0.10;;;0.10;;
13764;SDS011;6953;48.810;9.204;2022-08-11T10:11:59;0.10;;;0.10;;
13764;SDS011;6953;48.810;9.204;2022-08-11T10:14:27;0.10;;;0.10;;
13764;SDS011;6953;48.810;9.204;2022-08-11T10:17:13;0.10;;;0.10;;
13764;SDS011;6953;48.810;9.204;2022-08-11T10:19:41;0.10;;;0.10;;
13764;SDS011;6953;48.810;9.204;2022-08-11T10:22:09;0.10;;;0.10;;
13764;SDS011;6953;48.810;9.204;2022-08-11T10:24:54;0.10;;;0.10;;
13764;SDS011;6953;48.810;9.204;2022-08-11T10:27:40;0.08;;;0.08;;
13764;SDS011;6953;48.810;9.204;2022-08-11T10:30:07;0.10;;;0.10;;
13764;SDS011;6953;48.810;9.204;2022-08-11T10:32:52;0.10;;;0.10;;
13764;SDS011;6953;48.810;9.204;2022-08-11T10:35:36;0.00;;;0.00;;
13764;SDS011;6953;48.810;9.204;2022-08-11T10:38:02;0.00;;;0.00;;
13764;SDS011;6953;48.810;9.204;2022-08-11T10:40:28;0.03;;;0.03;;
13764;SDS011;6953;48.810;9.204;2022-08-11T10:42:55;0.10;;;0.10;;
13764;SDS011;6953;48.810;9.204;2022-08-11T10:45:37;0.10;;;0.10;;
13764;SDS011;6953;48.810;9.204;2022-08-11T10:48:23;0.10;;;0.10;;
13764;SDS011;6953;48.810;9.204;2022-08-11T10:50:51;0.10;;;0.10;;
13764;SDS011;6953;48.810;9.204;2022-08-11T10:53:37;0.03;;;0.03;;
13764;SDS011;6953;48.810;9.204;2022-08-11T10:56:26;0.00;;;0.00;;
13764;SDS011;6953;48.810;9.204;2022-08-11T10:59:12;0.10;;;0.10;;
13764;SDS011;6953;48.810;9.204;2022-08-11T11:01:40;0.10;;;0.10;;
13764;SDS011;6953;48.810;9.204;2022-08-11T11:04:19;0.00;;;0.00;;
13764;SDS011;6953;48.810;9.204;2022-08-11T11:09:19;0.10;;;0.10;;
13764;SDS011;6953;48.810;9.204;2022-08-11T11:12:08;0.10;;;0.10;;
13764;SDS011;6953;48.810;9.204;2022-08-11T11:14:55;0.03;;;0.03;;
13764;SDS011;6953;48.810;9.204;2022-08-11T11:17:45;0.10;;;0.10;;
13764;SDS011;6953;48.810;9.204;2022-08-11T11:20:22;0.10;;;0.10;;
13764;SDS011;6953;48.810;9.204;2022-08-11T11:22:55;0.10;;;0.10;;
13764;SDS011;6953;48.810;9.204;2022-08-11T11:37:14;0.10;;;0.10;;
13764;SDS011;6953;48.810;9.204;2022-08-11T11:39:22;0.00;;;0.00;;
13764;SDS011;6953;48.810;9.204;2022-08-11T11:41:51;0.10;;;0.10;;
13764;SDS011;6953;48.810;9.204;2022-08-11T11:44:19;0.00;;;0.00;;
13764;SDS011;6953;48.810;9.204;2022-08-11T11:46:47;0.10;;;0.10;;
13764;SDS011;6953;48.810;9.204;2022-08-11T11:49:14;0.10;;;0.10;;
13764;SDS011;6953;48.810;9.204;2022-08-11T11:51:42;0.10;;;0.10;;
13764;SDS011;6953;48.810;9.204;2022-08-11T11:54:10;0.10;;;0.10;;
13764;SDS011;6953;48.810;9.204;2022-08-11T11:56:38;0.00;;;0.00;;
13764;SDS011;6953;48.810;9.204;2022-08-11T11:59:05;0.10;;;0.10;;
13764;SDS011;6953;48.810;9.204;2022-08-11T12:01:54;0.10;;;0.10;;
13764;SDS011;6953;48.810;9.204;2022-08-11T12:04:20;0.00;;;0.00;;
13764;SDS011;6953;48.810;9.204;2022-08-11T12:06:47;0.00;;;0.00;;
13764;SDS011;6953;48.810;9.204;2022-08-11T12:09:13;0.10;;;0.10;;
13764;SDS011;6953;48.810;9.204;2022-08-11T12:11:42;0.00;;;0.00;;
13764;SDS011;6953;48.810;9.204;2022-08-11T12:14:27;0.10;;;0.10;;
13764;SDS011;6953;48.810;9.204;2022-08-11T12:16:53;0.00;;;0.00;;
13764;SDS011;6953;48.810;9.204;2022-08-11T12:19:22;0.10;;;0.10;;
13764;SDS011;6953;48.810;9.204;2022-08-11T12:21:48;0.10;;;0.10;;
13764;SDS011;6953;48.810;9.204;2022-08-11T12:24:34;0.10;;;0.10;;
13764;SDS011;6953;48.810;9.204;2022-08-11T12:27:20;0.10;;;0.10;;
13764;SDS011;6953;48.810;9.204;2022-08-11T12:29:47;0.00;;;0.00;;
13764;SDS011;6953;48.810;9.204;2022-08-11T12:32:15;0.10;;;0.10;;
13764;SDS011;6953;48.810;9.204;2022-08-11T12:34:41;0.10;;;0.10;;
13764;SDS011;6953;48.810;9.204;2022-08-11T12:37:07;0.10;;;0.10;;
13764;SDS011;6953;48.810;9.204;2022-08-11T12:39:37;0.10;;;0.10;;
13764;SDS011;6953;48.810;9.204;2022-08-11T12:42:25;0.10;;;0.10;;
13764;SDS011;6953;48.810;9.204;2022-08-11T12:45:10;0.05;;;0.05;;
13764;SDS011;6953;48.810;9.204;2022-08-11T12:47:53;0.10;;;0.10;;
13764;SDS011;6953;48.810;9.204;2022-08-11T12:50:41;0.10;;;0.10;;
13764;SDS011;6953;48.810;9.204;2022-08-11T12:53:28;0.00;;;0.00;;
13764;SDS011;6953;48.810;9.204;2022-08-11T12:55:59;0.00;;;0.00;;
13764;SDS011;6953;48.810;9.204;2022-08-11T12:58:47;0.10;;;0.10;;
13764;SDS011;6953;48.810;9.204;2022-08-11T13:01:15;0.10;;;0.10;;
13764;SDS011;6953;48.810;9.204;2022-08-11T13:03:59;0.10;;;0.10;;
13764;SDS011;6953;48.810;9.204;2022-08-11T13:06:44;0.00;;;0.00;;
13764;SDS011;6953;48.810;9.204;2022-08-11T13:09:10;0.00;;;0.00;;
13764;SDS011;6953;48.810;9.204;2022-08-11T13:11:37;0.10;;;0.10;;
13764;SDS011;6953;48.810;9.204;2022-08-11T13:14:24;0.08;;;0.08;;
13764;SDS011;6953;48.810;9.204;2022-08-11T13:16:51;0.10;;;0.10;;
13764;SDS011;6953;48.810;9.204;2022-08-11T13:19:35;0.10;;;0.10;;
13764;SDS011;6953;48.810;9.204;2022-08-11T13:22:05;0.10;;;0.10;;
13764;SDS011;6953;48.810;9.204;2022-08-11T13:24:31;0.10;;;0.10;;
13764;SDS011;6953;48.810;9.204;2022-08-11T13:27:00;0.10;;;0.10;;
13764;SDS011;6953;48.810;9.204;2022-08-11T13:29:27;0.05;;;0.05;;
13764;SDS011;6953;48.810;9.204;2022-08-11T13:31:56;0.10;;;0.10;;
13764;SDS011;6953;48.810;9.204;2022-08-11T13:34:24;0.10;;;0.10;;
13764;SDS011;6953;48.810;9.204;2022-08-11T13:36:52;0.08;;;0.08;;
13764;SDS011;6953;48.810;9.204;2022-08-11T13:39:20;0.10;;;0.10;;
13764;SDS011;6953;48.810;9.204;2022-08-11T13:41:47;0.08;;;0.08;;
13764;SDS011;6953;48.810;9.204;2022-08-11T13:44:14;0.10;;;0.10;;
13764;SDS011;6953;48.810;9.204;2022-08-11T13:46:41;0.10;;;0.10;;
13764;SDS011;6953;48.810;9.204;2022-08-11T13:49:08;0.00;;;0.00;;
13764;SDS011;6953;48.810;9.204;2022-08-11T13:51:37;0.00;;;0.00;;
13764;SDS011;6953;48.810;9.204;2022-08-11T13:54:07;0.10;;;0.10;;
13764;SDS011;6953;48.810;9.204;2022-08-11T13:56:35;0.10;;;0.10;;
13764;SDS011;6953;48.810;9.204;2022-08-11T13:59:04;0.00;;;0.00;;
13764;SDS011;6953;48.810;9.204;2022-08-11T14:01:32;0.10;;;0.10;;
13764;SDS011;6953;48.810;9.204;2022-08-11T14:04:07;0.10;;;0.10;;
13764;SDS011;6953;48.810;9.204;2022-08-11T14:06:35;0.00;;;0.00;;
13764;SDS011;6953;48.810;9.204;2022-08-11T14:09:06;0.10;;;0.10;;
13764;SDS011;6953;48.810;9.204;2022-08-11T14:11:33;0.10;;;0.10;;
13764;SDS011;6953;48.810;9.204;2022-08-11T14:14:20;0.10;;;0.10;;
13764;SDS011;6953;48.810;9.204;2022-08-11T14:16:49;0.10;;;0.10;;
13764;SDS011;6953;48.810;9.204;2022-08-11T14:19:18;0.10;;;0.10;;
13764;SDS011;6953;48.810;9.204;2022-08-11T14:21:47;0.10;;;0.10;;
13764;SDS011;6953;48.810;9.204;2022-08-11T14:24:36;0.10;;;0.10;;
13764;SDS011;6953;48.810;9.204;2022-08-11T14:27:03;0.10;;;0.10;;
13764;SDS011;6953;48.810;9.204;2022-08-11T14:29:30;0.00;;;0.00;;
13764;SDS011;6953;48.810;9.204;2022-08-11T14:31:59;0.10;;;0.10;;
13764;SDS011;6953;48.810;9.204;2022-08-11T14:34:27;0.00;;;0.00;;
13764;SDS011;6953;48.810;9.204;2022-08-11T14:36:57;0.10;;;0.10;;
13764;SDS011;6953;48.810;9.204;2022-08-11T14:39:26;0.10;;;0.10;;
13764;SDS011;6953;48.810;9.204;2022-08-11T14:41:53;0.10;;;0.10;;
13764;SDS011;6953;48.810;9.204;2022-08-11T14:44:43;0.10;;;0.10;;
13764;SDS011;6953;48.810;9.204;2022-08-11T14:47:30;0.10;;;0.10;;
13764;SDS011;6953;48.810;9.204;2022-08-11T14:49:58;0.10;;;0.10;;
13764;SDS011;6953;48.810;9.204;2022-08-11T14:52:26;0.10;;;0.10;;
13764;SDS011;6953;48.810;9.204;2022-08-11T14:54:52;0.10;;;0.10;;
13764;SDS011;6953;48.810;9.204;2022-08-11T14:57:37;0.10;;;0.10;;
13764;SDS011;6953;48.810;9.204;2022-08-11T15:00:05;0.10;;;0.10;;
13764;SDS011;6953;48.810;9.204;2022-08-11T15:02:33;0.10;;;0.10;;
13764;SDS011;6953;48.810;9.204;2022-08-11T15:05:21;0.10;;;0.10;;
13764;SDS011;6953;48.810;9.204;2022-08-11T15:07:48;0.10;;;0.10;;
13764;SDS011;6953;48.810;9.204;2022-08-11T15:10:15;0.10;;;0.10;;
13764;SDS011;6953;48.810;9.204;2022-08-11T15:12:42;0.10;;;0.10;;
13764;SDS011;6953;48.810;9.204;2022-08-11T15:15:09;0.10;;;0.10;;
13764;SDS011;6953;48.810;9.204;2022-08-11T15:17:55;0.10;;;0.10;;
13764;SDS011;6953;48.810;9.204;2022-08-11T15:20:24;0.10;;;0.10;;
13764;SDS011;6953;48.810;9.204;2022-08-11T15:23:10;0.15;;;0.15;;
13764;SDS011;6953;48.810;9.204;2022-08-11T15:25:56;0.10;;;0.10;;
13764;SDS011;6953;48.810;9.204;2022-08-11T15:28:25;0.10;;;0.10;;
13764;SDS011;6953;48.810;9.204;2022-08-11T15:31:11;0.10;;;0.10;;
13764;SDS011;6953;48.810;9.204;2022-08-11T15:34:06;0.10;;;0.10;;
13764;SDS011;6953;48.810;9.204;2022-08-11T15:36:57;0.10;;;0.10;;
13764;SDS011;6953;48.810;9.204;2022-08-11T15:40:22;0.10;;;0.10;;
13764;SDS011;6953;48.810;9.204;2022-08-11T15:46:12;0.10;;;0.10;;
13764;SDS011;6953;48.810;9.204;2022-08-11T15:48:50;0.10;;;0.10;;
13764;SDS011;6953;48.810;9.204;2022-08-11T15:51:56;0.10;;;0.10;;
13764;SDS011;6953;48.810;9.204;2022-08-11T15:54:19;0.10;;;0.10;;
13764;SDS011;6953;48.810;9.204;2022-08-11T15:56:50;0.10;;;0.10;;
13764;SDS011;6953;48.810;9.204;2022-08-11T15:59:19;0.10;;;0.10;;
13764;SDS011;6953;48.810;9.204;2022-08-11T16:02:04;0.10;;;0.10;;
13764;SDS011;6953;48.810;9.204;2022-08-11T16:04:52;0.10;;;0.10;;
13764;SDS011;6953;48.810;9.204;2022-08-11T16:07:20;0.10;;;0.10;;
13764;SDS011;6953;48.810;9.204;2022-08-11T16:12:42;0.10;;;0.10;;
13764;SDS011;6953;48.810;9.204;2022-08-11T16:15:48;0.10;;;0.10;;
13764;SDS011;6953;48.810;9.204;2022-08-11T16:18:42;0.10;;;0.10;;
13764;SDS011;6953;48.810;9.204;2022-08-11T16:21:22;0.10;;;0.10;;
13764;SDS011;6953;48.810;9.204;2022-08-11T16:23:51;0.10;;;0.10;;
13764;SDS011;6953;48.810;9.204;2022-08-11T16:26:22;0.10;;;0.10;;
13764;SDS011;6953;48.810;9.204;2022-08-11T16:28:51;0.13;;;0.13;;
13764;SDS011;6953;48.810;9.204;2022-08-11T16:31:20;0.10;;;0.10;;
13764;SDS011;6953;48.810;9.204;2022-08-11T16:33:47;0.15;;;0.15;;
13764;SDS011;6953;48.810;9.204;2022-08-11T16:36:15;0.10;;;0.10;;
13764;SDS011;6953;48.810;9.204;2022-08-11T16:39:00;0.10;;;0.10;;
13764;SDS011;6953;48.810;9.204;2022-08-11T16:41:30;0.20;;;0.20;;
13764;SDS011;6953;48.810;9.204;2022-08-11T16:44:18;0.10;;;0.10;;
13764;SDS011;6953;48.810;9.204;2022-08-11T16:47:04;0.10;;;0.10;;
13764;SDS011;6953;48.810;9.204;2022-08-11T16:49:33;0.10;;;0.10;;
13764;SDS011;6953;48.810;9.204;2022-08-11T16:52:06;0.20;;;0.20;;
13764;SDS011;6953;48.810;9.204;2022-08-11T16:54:36;0.10;;;0.10;;
13764;SDS011;6953;48.810;9.204;2022-08-11T16:57:08;0.20;;;0.20;;
13764;SDS011;6953;48.810;9.204;2022-08-11T16:59:55;0.10;;;0.10;;
13764;SDS011;6953;48.810;9.204;2022-08-11T17:02:26;0.20;;;0.20;;
13764;SDS011;6953;48.810;9.204;2022-08-11T17:05:17;0.10;;;0.10;;
13764;SDS011;6953;48.810;9.204;2022-08-11T17:08:06;0.10;;;0.10;;
13764;SDS011;6953;48.810;9.204;2022-08-11T17:10:59;0.17;;;0.17;;
13764;SDS011;6953;48.810;9.204;2022-08-11T17:13:46;0.20;;;0.20;;
13764;SDS011;6953;48.810;9.204;2022-08-11T17:16:23;0.20;;;0.20;;
13764;SDS011;6953;48.810;9.204;2022-08-11T17:19:06;0.20;;;0.20;;
13764;SDS011;6953;48.810;9.204;2022-08-11T17:24:23;0.10;;;0.10;;
13764;SDS011;6953;48.810;9.204;2022-08-11T17:26:53;0.13;;;0.13;;
13764;SDS011;6953;48.810;9.204;2022-08-11T17:31:54;0.20;;;0.20;;
13764;SDS011;6953;48.810;9.204;2022-08-11T17:34:41;0.20;;;0.20;;
13764;SDS011;6953;48.810;9.204;2022-08-11T17:37:27;0.10;;;0.10;;
13764;SDS011;6953;48.810;9.204;2022-08-11T17:39:55;0.15;;;0.15;;
13764;SDS011;6953;48.810;9.204;2022-08-11T17:42:22;0.20;;;0.20;;
13764;SDS011;6953;48.810;9.204;2022-08-11T17:45:09;0.20;;;0.20;;
13764;SDS011;6953;48.810;9.204;2022-08-11T17:47:55;0.20;;;0.20;;
13764;SDS011;6953;48.810;9.204;2022-08-11T17:50:41;0.20;;;0.20;;
13764;SDS011;6953;48.810;9.204;2022-08-11T17:53:07;0.20;;;0.20;;
13764;SDS011;6953;48.810;9.204;2022-08-11T17:55:55;0.10;;;0.10;;
13764;SDS011;6953;48.810;9.204;2022-08-11T17:58:39;0.20;;;0.20;;
13764;SDS011;6953;48.810;9.204;2022-08-11T18:01:23;0.20;;;0.20;;
13764;SDS011;6953;48.810;9.204;2022-08-11T18:03:50;0.20;;;0.20;;
13764;SDS011;6953;48.810;9.204;2022-08-11T18:06:18;0.20;;;0.20;;
13764;SDS011;6953;48.810;9.204;2022-08-11T18:08:45;0.20;;;0.20;;
13764;SDS011;6953;48.810;9.204;2022-08-11T18:11:33;0.20;;;0.20;;
13764;SDS011;6953;48.810;9.204;2022-08-11T18:14:19;0.20;;;0.20;;
13764;SDS011;6953;48.810;9.204;2022-08-11T18:17:05;0.20;;;0.20;;
13764;SDS011;6953;48.810;9.204;2022-08-11T18:19:49;0.20;;;0.20;;
13764;SDS011;6953;48.810;9.204;2022-08-11T18:22:36;0.20;;;0.20;;
13764;SDS011;6953;48.810;9.204;2022-08-11T18:25:28;0.20;;;0.20;;
13764;SDS011;6953;48.810;9.204;2022-08-11T18:28:14;0.20;;;0.20;;
13764;SDS011;6953;48.810;9.204;2022-08-11T18:31:04;0.17;;;0.17;;
13764;SDS011;6953;48.810;9.204;2022-08-11T18:33:51;0.20;;;0.20;;
13764;SDS011;6953;48.810;9.204;2022-08-11T18:36:38;0.20;;;0.20;;
13764;SDS011;6953;48.810;9.204;2022-08-11T18:39:26;0.20;;;0.20;;
13764;SDS011;6953;48.810;9.204;2022-08-11T18:42:13;0.20;;;0.20;;
13764;SDS011;6953;48.810;9.204;2022-08-11T18:45:00;0.20;;;0.20;;
13764;SDS011;6953;48.810;9.204;2022-08-11T18:47:48;0.20;;;0.20;;
13764;SDS011;6953;48.810;9.204;2022-08-11T18:50:33;0.20;;;0.20;;
13764;SDS011;6953;48.810;9.204;2022-08-11T18:53:19;0.30;;;0.30;;
13764;SDS011;6953;48.810;9.204;2022-08-11T18:56:05;0.20;;;0.20;;
13764;SDS011;6953;48.810;9.204;2022-08-11T18:58:49;0.30;;;0.30;;
13764;SDS011;6953;48.810;9.204;2022-08-11T19:01:35;0.32;;;0.32;;
13764;SDS011;6953;48.810;9.204;2022-08-11T19:04:20;0.30;;;0.30;;
13764;SDS011;6953;48.810;9.204;2022-08-11T19:07:05;0.30;;;0.30;;
13764;SDS011;6953;48.810;9.204;2022-08-11T19:09:50;0.30;;;0.30;;
13764;SDS011;6953;48.810;9.204;2022-08-11T19:12:39;0.25;;;0.25;;
13764;SDS011;6953;48.810;9.204;2022-08-11T19:15:25;0.30;;;0.30;;
13764;SDS011;6953;48.810;9.204;2022-08-11T19:18:11;0.30;;;0.30;;
13764;SDS011;6953;48.810;9.204;2022-08-11T19:20:59;0.30;;;0.30;;
13764;SDS011;6953;48.810;9.204;2022-08-11T19:23:46;0.30;;;0.30;;
13764;SDS011;6953;48.810;9.204;2022-08-11T19:26:34;0.30;;;0.30;;
13764;SDS011;6953;48.810;9.204;2022-08-11T19:29:19;0.30;;;0.30;;
13764;SDS011;6953;48.810;9.204;2022-08-11T19:32:04;0.30;;;0.30;;
13764;SDS011;6953;48.810;9.204;2022-08-11T19:34:49;0.32;;;0.32;;
13764;SDS011;6953;48.810;9.204;2022-08-11T19:37:35;0.30;;;0.30;;
13764;SDS011;6953;48.810;9.204;2022-08-11T19:40:21;0.40;;;0.40;;
13764;SDS011;6953;48.810;9.204;2022-08-11T19:43:06;0.30;;;0.30;;
13764;SDS011;6953;48.810;9.204;2022-08-11T19:45:52;0.30;;;0.30;;
13764;SDS011;6953;48.810;9.204;2022-08-11T19:48:38;0.30;;;0.30;;
13764;SDS011;6953;48.810;9.204;2022-08-11T19:51:24;0.22;;;0.22;;
13764;SDS011;6953;48.810;9.204;2022-08-11T19:54:09;0.20;;;0.20;;
13764;SDS011;6953;48.810;9.204;2022-08-11T19:56:53;0.20;;;0.20;;
13764;SDS011;6953;48.810;9.204;2022-08-11T19:59:38;0.30;;;0.30;;
13764;SDS011;6953;48.810;9.204;2022-08-11T20:02:22;0.40;;;0.40;;